sensor_id;sensor_type;location;lat;lon;timestamp;P1;durP1;ratioP1;P2;durP2;ratioP2
5999;SDS011;3028;49.468;7.694;2024-01-30T00:01:44;3.72;;;3.45;;
5999;SDS011;3028;49.468;7.694;2024-01-30T00:03:46;4.20;;;3.90;;
5999;SDS011;3028;49.468;7.694;2024-01-30T00:05:48;3.78;;;3.47;;
5999;SDS011;3028;49.468;7.694;2024-01-30T00:07:50;3.55;;;3.35;;
5999;SDS011;3028;49.468;7.694;2024-01-30T00:09:52;2.80;;;2.63;;
5999;SDS011;3028;49.468;7.694;2024-01-30T00:11:53;3.05;;;2.75;;
5999;SDS011;3028;49.468;7.694;2024-01-30T00:13:55;2.80;;;2.60;;
5999;SDS011;3028;49.468;7.694;2024-01-30T00:15:57;3.42;;;3.17;;
5999;SDS011;3028;49.468;7.694;2024-01-30T00:17:59;3.15;;;2.92;;
5999;SDS011;3028;49.468;7.694;2024-01-30T00:20:01;2.28;;;2.17;;
5999;SDS011;3028;49.468;7.694;2024-01-30T00:22:06;2.30;;;2.10;;
5999;SDS011;3028;49.468;7.694;2024-01-30T00:24:09;2.92;;;2.70;;
5999;SDS011;3028;49.468;7.694;2024-01-30T00:26:11;2.42;;;2.33;;
5999;SDS011;3028;49.468;7.694;2024-01-30T00:28:12;3.10;;;2.90;;
5999;SDS011;3028;49.468;7.694;2024-01-30T00:30:14;2.72;;;2.53;;
5999;SDS011;3028;49.468;7.694;2024-01-30T00:32:16;2.75;;;2.05;;
5999;SDS011;3028;49.468;7.694;2024-01-30T00:34:20;3.00;;;2.78;;
5999;SDS011;3028;49.468;7.694;2024-01-30T00:36:22;2.47;;;2.38;;
5999;SDS011;3028;49.468;7.694;2024-01-30T00:38:24;2.45;;;2.15;;
5999;SDS011;3028;49.468;7.694;2024-01-30T00:40:26;2.38;;;2.17;;
5999;SDS011;3028;49.468;7.694;2024-01-30T00:42:27;3.03;;;2.72;;
5999;SDS011;3028;49.468;7.694;2024-01-30T00:44:29;2.45;;;1.77;;
5999;SDS011;3028;49.468;7.694;2024-01-30T00:46:31;2.60;;;2.50;;
5999;SDS011;3028;49.468;7.694;2024-01-30T00:48:33;3.92;;;2.67;;
5999;SDS011;3028;49.468;7.694;2024-01-30T00:50:34;2.28;;;2.08;;
5999;SDS011;3028;49.468;7.694;2024-01-30T00:52:36;3.13;;;2.92;;
5999;SDS011;3028;49.468;7.694;2024-01-30T00:54:40;2.78;;;2.63;;
5999;SDS011;3028;49.468;7.694;2024-01-30T00:56:42;3.42;;;3.22;;
5999;SDS011;3028;49.468;7.694;2024-01-30T00:58:43;4.75;;;2.78;;
5999;SDS011;3028;49.468;7.694;2024-01-30T01:00:45;3.80;;;3.55;;
5999;SDS011;3028;49.468;7.694;2024-01-30T01:02:47;4.10;;;3.80;;
5999;SDS011;3028;49.468;7.694;2024-01-30T01:04:49;3.95;;;3.55;;
5999;SDS011;3028;49.468;7.694;2024-01-30T01:06:51;3.15;;;2.90;;
5999;SDS011;3028;49.468;7.694;2024-01-30T01:08:53;3.22;;;2.72;;
5999;SDS011;3028;49.468;7.694;2024-01-30T01:10:55;3.67;;;3.42;;
5999;SDS011;3028;49.468;7.694;2024-01-30T01:12:56;4.75;;;4.45;;
5999;SDS011;3028;49.468;7.694;2024-01-30T01:14:59;3.72;;;3.42;;
5999;SDS011;3028;49.468;7.694;2024-01-30T01:17:00;2.65;;;2.45;;
5999;SDS011;3028;49.468;7.694;2024-01-30T01:19:02;2.33;;;2.22;;
5999;SDS011;3028;49.468;7.694;2024-01-30T01:21:05;2.67;;;2.42;;
5999;SDS011;3028;49.468;7.694;2024-01-30T01:23:07;13.30;;;3.17;;
5999;SDS011;3028;49.468;7.694;2024-01-30T01:25:08;3.33;;;2.88;;
5999;SDS011;3028;49.468;7.694;2024-01-30T01:27:11;3.47;;;3.17;;
5999;SDS011;3028;49.468;7.694;2024-01-30T01:29:13;2.85;;;2.65;;
5999;SDS011;3028;49.468;7.694;2024-01-30T01:31:17;2.83;;;2.63;;
5999;SDS011;3028;49.468;7.694;2024-01-30T01:33:19;2.28;;;2.10;;
5999;SDS011;3028;49.468;7.694;2024-01-30T01:35:22;1.85;;;1.75;;
5999;SDS011;3028;49.468;7.694;2024-01-30T01:37:26;5.22;;;3.15;;
5999;SDS011;3028;49.468;7.694;2024-01-30T01:39:28;2.88;;;2.60;;
5999;SDS011;3028;49.468;7.694;2024-01-30T01:41:32;3.20;;;3.00;;
5999;SDS011;3028;49.468;7.694;2024-01-30T01:43:34;3.30;;;2.90;;
5999;SDS011;3028;49.468;7.694;2024-01-30T01:45:36;2.35;;;2.25;;
5999;SDS011;3028;49.468;7.694;2024-01-30T01:47:38;2.15;;;2.05;;
5999;SDS011;3028;49.468;7.694;2024-01-30T01:49:40;1.90;;;1.80;;
5999;SDS011;3028;49.468;7.694;2024-01-30T01:51:42;2.45;;;2.35;;
5999;SDS011;3028;49.468;7.694;2024-01-30T01:53:46;1.65;;;1.55;;
5999;SDS011;3028;49.468;7.694;2024-01-30T01:55:48;3.17;;;2.88;;
5999;SDS011;3028;49.468;7.694;2024-01-30T01:57:50;2.33;;;2.13;;
5999;SDS011;3028;49.468;7.694;2024-01-30T01:59:51;2.60;;;2.40;;
5999;SDS011;3028;49.468;7.694;2024-01-30T02:01:54;2.70;;;2.55;;
5999;SDS011;3028;49.468;7.694;2024-01-30T02:03:57;3.75;;;3.25;;
5999;SDS011;3028;49.468;7.694;2024-01-30T02:06:00;2.58;;;2.38;;
5999;SDS011;3028;49.468;7.694;2024-01-30T02:08:03;2.75;;;2.53;;
5999;SDS011;3028;49.468;7.694;2024-01-30T02:10:07;3.67;;;2.67;;
5999;SDS011;3028;49.468;7.694;2024-01-30T02:12:09;2.10;;;1.95;;
5999;SDS011;3028;49.468;7.694;2024-01-30T02:14:11;3.03;;;2.72;;
5999;SDS011;3028;49.468;7.694;2024-01-30T02:16:12;2.15;;;2.05;;
5999;SDS011;3028;49.468;7.694;2024-01-30T02:18:14;2.47;;;2.28;;
5999;SDS011;3028;49.468;7.694;2024-01-30T02:20:16;2.45;;;2.25;;
5999;SDS011;3028;49.468;7.694;2024-01-30T02:22:18;2.88;;;2.65;;
5999;SDS011;3028;49.468;7.694;2024-01-30T02:24:21;2.15;;;2.05;;
5999;SDS011;3028;49.468;7.694;2024-01-30T02:26:22;2.40;;;2.20;;
5999;SDS011;3028;49.468;7.694;2024-01-30T02:28:24;2.95;;;2.75;;
5999;SDS011;3028;49.468;7.694;2024-01-30T02:30:26;4.30;;;2.20;;
5999;SDS011;3028;49.468;7.694;2024-01-30T02:32:27;1.92;;;1.83;;
5999;SDS011;3028;49.468;7.694;2024-01-30T02:34:29;4.60;;;1.83;;
5999;SDS011;3028;49.468;7.694;2024-01-30T02:36:31;2.10;;;1.92;;
5999;SDS011;3028;49.468;7.694;2024-01-30T02:38:33;6.40;;;2.30;;
5999;SDS011;3028;49.468;7.694;2024-01-30T02:40:34;3.28;;;2.75;;
5999;SDS011;3028;49.468;7.694;2024-01-30T02:42:36;2.05;;;1.95;;
5999;SDS011;3028;49.468;7.694;2024-01-30T02:44:38;2.30;;;2.15;;
5999;SDS011;3028;49.468;7.694;2024-01-30T02:46:40;2.47;;;2.30;;
5999;SDS011;3028;49.468;7.694;2024-01-30T02:48:42;3.00;;;2.75;;
5999;SDS011;3028;49.468;7.694;2024-01-30T02:50:43;2.33;;;2.22;;
5999;SDS011;3028;49.468;7.694;2024-01-30T02:52:45;1.95;;;1.85;;
5999;SDS011;3028;49.468;7.694;2024-01-30T02:54:47;2.20;;;2.00;;
5999;SDS011;3028;49.468;7.694;2024-01-30T02:56:49;2.88;;;2.70;;
5999;SDS011;3028;49.468;7.694;2024-01-30T02:58:51;2.20;;;2.10;;
5999;SDS011;3028;49.468;7.694;2024-01-30T03:00:53;2.25;;;2.13;;
5999;SDS011;3028;49.468;7.694;2024-01-30T03:02:55;2.15;;;1.95;;
5999;SDS011;3028;49.468;7.694;2024-01-30T03:04:57;3.47;;;2.72;;
5999;SDS011;3028;49.468;7.694;2024-01-30T03:06:58;2.53;;;2.38;;
5999;SDS011;3028;49.468;7.694;2024-01-30T03:09:00;2.80;;;2.60;;
5999;SDS011;3028;49.468;7.694;2024-01-30T03:11:02;2.30;;;2.10;;
5999;SDS011;3028;49.468;7.694;2024-01-30T03:13:04;2.28;;;2.17;;
5999;SDS011;3028;49.468;7.694;2024-01-30T03:15:06;2.17;;;2.08;;
5999;SDS011;3028;49.468;7.694;2024-01-30T03:17:07;3.60;;;3.40;;
5999;SDS011;3028;49.468;7.694;2024-01-30T03:19:09;2.58;;;2.38;;
5999;SDS011;3028;49.468;7.694;2024-01-30T03:21:11;2.30;;;2.20;;
5999;SDS011;3028;49.468;7.694;2024-01-30T03:23:13;2.20;;;2.10;;
5999;SDS011;3028;49.468;7.694;2024-01-30T03:25:14;2.92;;;2.72;;
5999;SDS011;3028;49.468;7.694;2024-01-30T03:27:16;6.90;;;2.28;;
5999;SDS011;3028;49.468;7.694;2024-01-30T03:29:18;2.28;;;1.98;;
5999;SDS011;3028;49.468;7.694;2024-01-30T03:31:20;2.45;;;2.28;;
5999;SDS011;3028;49.468;7.694;2024-01-30T03:33:22;3.78;;;3.50;;
5999;SDS011;3028;49.468;7.694;2024-01-30T03:35:24;2.50;;;2.40;;
5999;SDS011;3028;49.468;7.694;2024-01-30T03:37:25;3.15;;;3.00;;
5999;SDS011;3028;49.468;7.694;2024-01-30T03:39:27;3.92;;;3.60;;
5999;SDS011;3028;49.468;7.694;2024-01-30T03:41:29;2.25;;;2.15;;
5999;SDS011;3028;49.468;7.694;2024-01-30T03:43:31;2.72;;;2.53;;
5999;SDS011;3028;49.468;7.694;2024-01-30T03:45:32;2.47;;;2.38;;
5999;SDS011;3028;49.468;7.694;2024-01-30T03:47:34;1.85;;;1.65;;
5999;SDS011;3028;49.468;7.694;2024-01-30T03:49:36;2.08;;;1.90;;
5999;SDS011;3028;49.468;7.694;2024-01-30T03:51:38;2.35;;;2.15;;
5999;SDS011;3028;49.468;7.694;2024-01-30T03:53:40;16.13;;;3.55;;
5999;SDS011;3028;49.468;7.694;2024-01-30T03:55:43;1.90;;;1.80;;
5999;SDS011;3028;49.468;7.694;2024-01-30T03:57:44;2.10;;;2.00;;
5999;SDS011;3028;49.468;7.694;2024-01-30T03:59:46;1.85;;;1.75;;
5999;SDS011;3028;49.468;7.694;2024-01-30T04:01:48;2.70;;;2.28;;
5999;SDS011;3028;49.468;7.694;2024-01-30T04:03:50;2.60;;;2.40;;
5999;SDS011;3028;49.468;7.694;2024-01-30T04:05:52;1.92;;;1.65;;
5999;SDS011;3028;49.468;7.694;2024-01-30T04:07:54;3.67;;;3.38;;
5999;SDS011;3028;49.468;7.694;2024-01-30T04:09:56;2.05;;;1.95;;
5999;SDS011;3028;49.468;7.694;2024-01-30T04:11:58;2.38;;;2.17;;
5999;SDS011;3028;49.468;7.694;2024-01-30T04:13:59;5.97;;;2.30;;
5999;SDS011;3028;49.468;7.694;2024-01-30T04:16:01;2.22;;;2.13;;
5999;SDS011;3028;49.468;7.694;2024-01-30T04:18:03;2.75;;;2.58;;
5999;SDS011;3028;49.468;7.694;2024-01-30T04:20:06;2.75;;;2.55;;
5999;SDS011;3028;49.468;7.694;2024-01-30T04:22:08;3.97;;;3.67;;
5999;SDS011;3028;49.468;7.694;2024-01-30T04:24:09;2.45;;;2.35;;
5999;SDS011;3028;49.468;7.694;2024-01-30T04:26:11;3.17;;;2.58;;
5999;SDS011;3028;49.468;7.694;2024-01-30T04:28:13;2.47;;;2.35;;
5999;SDS011;3028;49.468;7.694;2024-01-30T04:30:15;3.17;;;2.97;;
5999;SDS011;3028;49.468;7.694;2024-01-30T04:32:17;2.85;;;2.65;;
5999;SDS011;3028;49.468;7.694;2024-01-30T04:34:18;2.58;;;2.45;;
5999;SDS011;3028;49.468;7.694;2024-01-30T04:36:20;1.90;;;1.80;;
5999;SDS011;3028;49.468;7.694;2024-01-30T04:38:22;2.45;;;1.80;;
5999;SDS011;3028;49.468;7.694;2024-01-30T04:40:24;2.30;;;2.20;;
5999;SDS011;3028;49.468;7.694;2024-01-30T04:42:25;2.88;;;2.67;;
5999;SDS011;3028;49.468;7.694;2024-01-30T04:44:27;2.30;;;2.15;;
5999;SDS011;3028;49.468;7.694;2024-01-30T04:46:29;2.40;;;2.30;;
5999;SDS011;3028;49.468;7.694;2024-01-30T04:48:31;2.85;;;2.60;;
5999;SDS011;3028;49.468;7.694;2024-01-30T04:50:33;2.47;;;2.35;;
5999;SDS011;3028;49.468;7.694;2024-01-30T04:52:35;2.15;;;1.95;;
5999;SDS011;3028;49.468;7.694;2024-01-30T04:54:37;1.98;;;1.88;;
5999;SDS011;3028;49.468;7.694;2024-01-30T04:56:38;2.60;;;2.50;;
5999;SDS011;3028;49.468;7.694;2024-01-30T04:58:40;2.30;;;2.10;;
5999;SDS011;3028;49.468;7.694;2024-01-30T05:00:42;2.50;;;2.30;;
5999;SDS011;3028;49.468;7.694;2024-01-30T05:02:44;4.95;;;3.80;;
5999;SDS011;3028;49.468;7.694;2024-01-30T05:04:46;2.97;;;2.78;;
5999;SDS011;3028;49.468;7.694;2024-01-30T05:06:48;3.13;;;2.85;;
5999;SDS011;3028;49.468;7.694;2024-01-30T05:08:50;3.50;;;3.30;;
5999;SDS011;3028;49.468;7.694;2024-01-30T05:10:51;3.10;;;2.90;;
5999;SDS011;3028;49.468;7.694;2024-01-30T05:12:53;2.33;;;2.22;;
5999;SDS011;3028;49.468;7.694;2024-01-30T05:14:55;3.33;;;3.03;;
5999;SDS011;3028;49.468;7.694;2024-01-30T05:16:56;3.33;;;3.13;;
5999;SDS011;3028;49.468;7.694;2024-01-30T05:18:58;2.15;;;2.03;;
5999;SDS011;3028;49.468;7.694;2024-01-30T05:21:03;2.47;;;2.28;;
5999;SDS011;3028;49.468;7.694;2024-01-30T05:23:06;2.15;;;2.05;;
5999;SDS011;3028;49.468;7.694;2024-01-30T05:25:08;1.92;;;1.85;;
5999;SDS011;3028;49.468;7.694;2024-01-30T05:27:10;3.00;;;2.80;;
5999;SDS011;3028;49.468;7.694;2024-01-30T05:29:12;2.25;;;2.05;;
5999;SDS011;3028;49.468;7.694;2024-01-30T05:31:14;3.63;;;3.30;;
5999;SDS011;3028;49.468;7.694;2024-01-30T05:33:16;2.50;;;2.40;;
5999;SDS011;3028;49.468;7.694;2024-01-30T05:35:18;2.80;;;2.60;;
5999;SDS011;3028;49.468;7.694;2024-01-30T05:37:19;3.40;;;3.08;;
5999;SDS011;3028;49.468;7.694;2024-01-30T05:39:21;2.40;;;2.30;;
5999;SDS011;3028;49.468;7.694;2024-01-30T05:41:23;3.38;;;3.08;;
5999;SDS011;3028;49.468;7.694;2024-01-30T05:43:25;2.90;;;2.67;;
5999;SDS011;3028;49.468;7.694;2024-01-30T05:45:26;5.25;;;3.25;;
5999;SDS011;3028;49.468;7.694;2024-01-30T05:47:28;4.63;;;2.67;;
5999;SDS011;3028;49.468;7.694;2024-01-30T05:49:30;2.95;;;2.72;;
5999;SDS011;3028;49.468;7.694;2024-01-30T05:51:32;1.85;;;1.75;;
5999;SDS011;3028;49.468;7.694;2024-01-30T05:53:34;3.00;;;2.80;;
5999;SDS011;3028;49.468;7.694;2024-01-30T05:55:36;2.97;;;2.78;;
5999;SDS011;3028;49.468;7.694;2024-01-30T05:57:38;3.38;;;3.08;;
5999;SDS011;3028;49.468;7.694;2024-01-30T05:59:40;6.03;;;3.42;;
5999;SDS011;3028;49.468;7.694;2024-01-30T06:01:46;2.97;;;2.78;;
5999;SDS011;3028;49.468;7.694;2024-01-30T06:03:49;2.95;;;2.72;;
5999;SDS011;3028;49.468;7.694;2024-01-30T06:05:51;3.50;;;3.20;;
5999;SDS011;3028;49.468;7.694;2024-01-30T06:07:52;3.60;;;3.38;;
5999;SDS011;3028;49.468;7.694;2024-01-30T06:09:55;4.70;;;1.98;;
5999;SDS011;3028;49.468;7.694;2024-01-30T06:11:56;2.20;;;2.10;;
5999;SDS011;3028;49.468;7.694;2024-01-30T06:13:58;3.90;;;3.63;;
5999;SDS011;3028;49.468;7.694;2024-01-30T06:16:00;2.22;;;2.03;;
5999;SDS011;3028;49.468;7.694;2024-01-30T06:18:02;2.50;;;2.35;;
5999;SDS011;3028;49.468;7.694;2024-01-30T06:20:04;2.83;;;2.63;;
5999;SDS011;3028;49.468;7.694;2024-01-30T06:22:06;2.47;;;2.22;;
5999;SDS011;3028;49.468;7.694;2024-01-30T06:24:08;2.88;;;2.67;;
5999;SDS011;3028;49.468;7.694;2024-01-30T06:26:10;3.53;;;2.83;;
5999;SDS011;3028;49.468;7.694;2024-01-30T06:28:11;2.30;;;2.10;;
5999;SDS011;3028;49.468;7.694;2024-01-30T06:30:13;2.92;;;2.63;;
5999;SDS011;3028;49.468;7.694;2024-01-30T06:32:15;2.67;;;2.47;;
5999;SDS011;3028;49.468;7.694;2024-01-30T06:34:17;2.50;;;2.35;;
5999;SDS011;3028;49.468;7.694;2024-01-30T06:36:19;3.80;;;3.35;;
5999;SDS011;3028;49.468;7.694;2024-01-30T06:38:21;3.17;;;3.08;;
5999;SDS011;3028;49.468;7.694;2024-01-30T06:40:22;3.08;;;2.80;;
5999;SDS011;3028;49.468;7.694;2024-01-30T06:42:24;2.75;;;2.60;;
5999;SDS011;3028;49.468;7.694;2024-01-30T06:44:26;2.83;;;2.63;;
5999;SDS011;3028;49.468;7.694;2024-01-30T06:46:30;5.22;;;3.30;;
5999;SDS011;3028;49.468;7.694;2024-01-30T06:48:32;4.82;;;3.88;;
5999;SDS011;3028;49.468;7.694;2024-01-30T06:50:34;5.57;;;5.00;;
5999;SDS011;3028;49.468;7.694;2024-01-30T06:52:35;5.63;;;4.03;;
5999;SDS011;3028;49.468;7.694;2024-01-30T06:54:37;3.40;;;3.13;;
5999;SDS011;3028;49.468;7.694;2024-01-30T06:56:39;5.07;;;4.55;;
5999;SDS011;3028;49.468;7.694;2024-01-30T06:58:41;4.88;;;4.15;;
5999;SDS011;3028;49.468;7.694;2024-01-30T07:00:43;3.40;;;2.97;;
5999;SDS011;3028;49.468;7.694;2024-01-30T07:02:44;10.95;;;3.58;;
5999;SDS011;3028;49.468;7.694;2024-01-30T07:04:46;2.85;;;2.65;;
5999;SDS011;3028;49.468;7.694;2024-01-30T07:06:48;3.67;;;3.35;;
5999;SDS011;3028;49.468;7.694;2024-01-30T07:08:50;2.57;;;2.40;;
5999;SDS011;3028;49.468;7.694;2024-01-30T07:10:52;3.17;;;2.97;;
5999;SDS011;3028;49.468;7.694;2024-01-30T07:13:00;4.20;;;3.90;;
5999;SDS011;3028;49.468;7.694;2024-01-30T07:15:03;2.88;;;2.67;;
5999;SDS011;3028;49.468;7.694;2024-01-30T07:17:05;4.18;;;3.88;;
5999;SDS011;3028;49.468;7.694;2024-01-30T07:19:07;3.40;;;3.13;;
5999;SDS011;3028;49.468;7.694;2024-01-30T07:21:14;2.58;;;2.33;;
5999;SDS011;3028;49.468;7.694;2024-01-30T07:23:16;4.03;;;3.75;;
5999;SDS011;3028;49.468;7.694;2024-01-30T07:25:19;3.83;;;3.63;;
5999;SDS011;3028;49.468;7.694;2024-01-30T07:27:20;3.70;;;2.83;;
5999;SDS011;3028;49.468;7.694;2024-01-30T07:29:23;4.57;;;4.28;;
5999;SDS011;3028;49.468;7.694;2024-01-30T07:31:24;3.17;;;3.03;;
5999;SDS011;3028;49.468;7.694;2024-01-30T07:33:28;3.28;;;2.97;;
5999;SDS011;3028;49.468;7.694;2024-01-30T07:35:33;4.95;;;4.65;;
5999;SDS011;3028;49.468;7.694;2024-01-30T07:37:34;4.57;;;4.28;;
5999;SDS011;3028;49.468;7.694;2024-01-30T07:39:37;2.92;;;2.72;;
5999;SDS011;3028;49.468;7.694;2024-01-30T07:41:38;4.82;;;4.28;;
5999;SDS011;3028;49.468;7.694;2024-01-30T07:43:40;3.88;;;3.58;;
5999;SDS011;3028;49.468;7.694;2024-01-30T07:45:42;2.50;;;2.40;;
5999;SDS011;3028;49.468;7.694;2024-01-30T07:47:44;2.67;;;2.47;;
5999;SDS011;3028;49.468;7.694;2024-01-30T07:49:46;3.50;;;3.30;;
5999;SDS011;3028;49.468;7.694;2024-01-30T07:51:48;3.30;;;3.10;;
5999;SDS011;3028;49.468;7.694;2024-01-30T07:53:50;3.17;;;2.97;;
5999;SDS011;3028;49.468;7.694;2024-01-30T07:55:52;3.53;;;3.33;;
5999;SDS011;3028;49.468;7.694;2024-01-30T07:57:54;2.55;;;2.30;;
5999;SDS011;3028;49.468;7.694;2024-01-30T07:59:56;3.63;;;2.78;;
5999;SDS011;3028;49.468;7.694;2024-01-30T08:01:59;4.50;;;4.18;;
5999;SDS011;3028;49.468;7.694;2024-01-30T08:04:00;2.83;;;2.63;;
5999;SDS011;3028;49.468;7.694;2024-01-30T08:06:02;8.23;;;3.80;;
5999;SDS011;3028;49.468;7.694;2024-01-30T08:08:05;2.38;;;2.17;;
5999;SDS011;3028;49.468;7.694;2024-01-30T08:10:07;2.88;;;2.67;;
5999;SDS011;3028;49.468;7.694;2024-01-30T08:12:09;2.53;;;2.33;;
5999;SDS011;3028;49.468;7.694;2024-01-30T08:14:10;4.90;;;2.75;;
5999;SDS011;3028;49.468;7.694;2024-01-30T08:16:12;11.32;;;4.22;;
5999;SDS011;3028;49.468;7.694;2024-01-30T08:18:15;5.38;;;3.00;;
5999;SDS011;3028;49.468;7.694;2024-01-30T08:20:17;4.65;;;4.18;;
5999;SDS011;3028;49.468;7.694;2024-01-30T08:22:19;3.53;;;3.28;;
5999;SDS011;3028;49.468;7.694;2024-01-30T08:24:21;3.83;;;3.63;;
5999;SDS011;3028;49.468;7.694;2024-01-30T08:26:23;2.70;;;2.55;;
5999;SDS011;3028;49.468;7.694;2024-01-30T08:28:24;4.30;;;4.00;;
5999;SDS011;3028;49.468;7.694;2024-01-30T08:30:27;3.83;;;3.55;;
5999;SDS011;3028;49.468;7.694;2024-01-30T08:32:29;3.28;;;3.08;;
5999;SDS011;3028;49.468;7.694;2024-01-30T08:34:31;4.60;;;3.92;;
5999;SDS011;3028;49.468;7.694;2024-01-30T08:36:34;3.17;;;2.95;;
5999;SDS011;3028;49.468;7.694;2024-01-30T08:38:36;3.53;;;3.22;;
5999;SDS011;3028;49.468;7.694;2024-01-30T08:40:38;3.78;;;3.47;;
5999;SDS011;3028;49.468;7.694;2024-01-30T08:42:39;4.18;;;3.90;;
5999;SDS011;3028;49.468;7.694;2024-01-30T08:44:44;3.47;;;2.42;;
5999;SDS011;3028;49.468;7.694;2024-01-30T08:46:46;3.10;;;2.80;;
5999;SDS011;3028;49.468;7.694;2024-01-30T08:48:48;4.45;;;4.22;;
5999;SDS011;3028;49.468;7.694;2024-01-30T08:50:50;2.95;;;2.75;;
5999;SDS011;3028;49.468;7.694;2024-01-30T08:52:52;3.95;;;3.70;;
5999;SDS011;3028;49.468;7.694;2024-01-30T08:54:54;3.75;;;3.50;;
5999;SDS011;3028;49.468;7.694;2024-01-30T08:56:56;3.95;;;3.75;;
5999;SDS011;3028;49.468;7.694;2024-01-30T08:58:59;3.67;;;3.40;;
5999;SDS011;3028;49.468;7.694;2024-01-30T09:01:01;4.32;;;3.95;;
5999;SDS011;3028;49.468;7.694;2024-01-30T09:03:05;5.65;;;5.22;;
5999;SDS011;3028;49.468;7.694;2024-01-30T09:05:07;3.53;;;3.33;;
5999;SDS011;3028;49.468;7.694;2024-01-30T09:07:09;3.90;;;3.60;;
5999;SDS011;3028;49.468;7.694;2024-01-30T09:09:12;3.55;;;3.35;;
5999;SDS011;3028;49.468;7.694;2024-01-30T09:11:18;5.10;;;4.35;;
5999;SDS011;3028;49.468;7.694;2024-01-30T09:13:20;4.35;;;3.55;;
5999;SDS011;3028;49.468;7.694;2024-01-30T09:15:21;5.65;;;4.40;;
5999;SDS011;3028;49.468;7.694;2024-01-30T09:17:27;9.52;;;4.60;;
5999;SDS011;3028;49.468;7.694;2024-01-30T09:19:29;5.00;;;4.70;;
5999;SDS011;3028;49.468;7.694;2024-01-30T09:21:32;5.82;;;5.18;;
5999;SDS011;3028;49.468;7.694;2024-01-30T09:23:36;7.75;;;6.80;;
5999;SDS011;3028;49.468;7.694;2024-01-30T09:25:38;9.77;;;8.88;;
5999;SDS011;3028;49.468;7.694;2024-01-30T09:27:40;13.07;;;11.63;;
5999;SDS011;3028;49.468;7.694;2024-01-30T09:29:42;15.05;;;11.95;;
5999;SDS011;3028;49.468;7.694;2024-01-30T09:31:44;12.75;;;11.30;;
5999;SDS011;3028;49.468;7.694;2024-01-30T09:33:47;10.90;;;9.77;;
5999;SDS011;3028;49.468;7.694;2024-01-30T09:35:50;18.75;;;9.15;;
5999;SDS011;3028;49.468;7.694;2024-01-30T09:37:52;16.63;;;9.98;;
5999;SDS011;3028;49.468;7.694;2024-01-30T09:39:54;12.63;;;11.40;;
5999;SDS011;3028;49.468;7.694;2024-01-30T09:42:05;11.23;;;9.57;;
5999;SDS011;3028;49.468;7.694;2024-01-30T09:44:12;12.10;;;8.00;;
5999;SDS011;3028;49.468;7.694;2024-01-30T09:46:14;9.32;;;8.40;;
5999;SDS011;3028;49.468;7.694;2024-01-30T09:48:16;7.32;;;6.68;;
5999;SDS011;3028;49.468;7.694;2024-01-30T09:50:19;6.13;;;5.82;;
5999;SDS011;3028;49.468;7.694;2024-01-30T09:52:21;12.65;;;6.38;;
5999;SDS011;3028;49.468;7.694;2024-01-30T09:54:23;7.45;;;6.72;;
5999;SDS011;3028;49.468;7.694;2024-01-30T09:56:25;7.10;;;6.20;;
5999;SDS011;3028;49.468;7.694;2024-01-30T09:58:27;6.55;;;5.88;;
5999;SDS011;3028;49.468;7.694;2024-01-30T10:00:31;6.75;;;6.22;;
5999;SDS011;3028;49.468;7.694;2024-01-30T10:02:36;4.75;;;4.45;;
5999;SDS011;3028;49.468;7.694;2024-01-30T10:04:38;5.38;;;4.88;;
5999;SDS011;3028;49.468;7.694;2024-01-30T10:06:40;5.10;;;4.68;;
5999;SDS011;3028;49.468;7.694;2024-01-30T10:08:43;5.10;;;4.70;;
5999;SDS011;3028;49.468;7.694;2024-01-30T10:10:46;6.00;;;5.50;;
5999;SDS011;3028;49.468;7.694;2024-01-30T10:12:49;5.63;;;5.18;;
5999;SDS011;3028;49.468;7.694;2024-01-30T10:14:50;5.28;;;4.97;;
5999;SDS011;3028;49.468;7.694;2024-01-30T10:16:52;4.70;;;4.30;;
5999;SDS011;3028;49.468;7.694;2024-01-30T10:18:54;3.72;;;3.53;;
5999;SDS011;3028;49.468;7.694;2024-01-30T10:20:56;5.28;;;4.78;;
5999;SDS011;3028;49.468;7.694;2024-01-30T10:22:59;4.65;;;4.25;;
5999;SDS011;3028;49.468;7.694;2024-01-30T10:25:01;5.53;;;4.35;;
5999;SDS011;3028;49.468;7.694;2024-01-30T10:27:07;3.80;;;3.50;;
5999;SDS011;3028;49.468;7.694;2024-01-30T10:29:08;3.40;;;3.15;;
5999;SDS011;3028;49.468;7.694;2024-01-30T10:31:10;4.30;;;3.95;;
5999;SDS011;3028;49.468;7.694;2024-01-30T10:33:14;4.65;;;4.07;;
5999;SDS011;3028;49.468;7.694;2024-01-30T10:35:16;4.05;;;3.75;;
5999;SDS011;3028;49.468;7.694;2024-01-30T10:37:17;4.30;;;3.90;;
5999;SDS011;3028;49.468;7.694;2024-01-30T10:39:20;4.78;;;4.35;;
5999;SDS011;3028;49.468;7.694;2024-01-30T10:41:27;4.22;;;3.97;;
5999;SDS011;3028;49.468;7.694;2024-01-30T10:43:35;3.78;;;3.47;;
5999;SDS011;3028;49.468;7.694;2024-01-30T10:45:37;13.27;;;4.20;;
5999;SDS011;3028;49.468;7.694;2024-01-30T10:47:44;5.50;;;4.28;;
5999;SDS011;3028;49.468;7.694;2024-01-30T10:49:52;2.70;;;2.50;;
5999;SDS011;3028;49.468;7.694;2024-01-30T10:51:55;3.72;;;3.35;;
5999;SDS011;3028;49.468;7.694;2024-01-30T10:54:01;3.33;;;3.05;;
5999;SDS011;3028;49.468;7.694;2024-01-30T10:56:05;3.80;;;3.50;;
5999;SDS011;3028;49.468;7.694;2024-01-30T10:58:07;4.63;;;4.30;;
5999;SDS011;3028;49.468;7.694;2024-01-30T11:00:13;3.55;;;3.25;;
5999;SDS011;3028;49.468;7.694;2024-01-30T11:02:17;3.75;;;3.42;;
5999;SDS011;3028;49.468;7.694;2024-01-30T11:04:20;4.15;;;3.85;;
5999;SDS011;3028;49.468;7.694;2024-01-30T11:06:25;4.47;;;3.88;;
5999;SDS011;3028;49.468;7.694;2024-01-30T11:08:27;11.00;;;4.13;;
5999;SDS011;3028;49.468;7.694;2024-01-30T11:10:32;3.53;;;3.30;;
5999;SDS011;3028;49.468;7.694;2024-01-30T11:12:38;3.28;;;3.05;;
5999;SDS011;3028;49.468;7.694;2024-01-30T11:14:46;11.23;;;3.63;;
5999;SDS011;3028;49.468;7.694;2024-01-30T11:16:48;4.63;;;4.30;;
5999;SDS011;3028;49.468;7.694;2024-01-30T11:18:50;3.92;;;3.53;;
5999;SDS011;3028;49.468;7.694;2024-01-30T11:21:01;4.03;;;3.78;;
5999;SDS011;3028;49.468;7.694;2024-01-30T11:23:03;3.58;;;3.38;;
5999;SDS011;3028;49.468;7.694;2024-01-30T11:25:10;3.55;;;3.25;;
5999;SDS011;3028;49.468;7.694;2024-01-30T11:27:13;5.28;;;2.90;;
5999;SDS011;3028;49.468;7.694;2024-01-30T11:29:16;4.00;;;3.70;;
5999;SDS011;3028;49.468;7.694;2024-01-30T11:31:19;3.50;;;3.20;;
5999;SDS011;3028;49.468;7.694;2024-01-30T11:33:27;3.42;;;3.13;;
5999;SDS011;3028;49.468;7.694;2024-01-30T11:35:35;3.58;;;3.30;;
5999;SDS011;3028;49.468;7.694;2024-01-30T11:37:37;7.57;;;3.90;;
5999;SDS011;3028;49.468;7.694;2024-01-30T11:39:40;5.68;;;5.28;;
5999;SDS011;3028;49.468;7.694;2024-01-30T11:41:43;3.95;;;3.55;;
5999;SDS011;3028;49.468;7.694;2024-01-30T11:43:52;3.75;;;3.45;;
5999;SDS011;3028;49.468;7.694;2024-01-30T11:45:55;4.95;;;3.75;;
5999;SDS011;3028;49.468;7.694;2024-01-30T11:47:58;4.07;;;3.72;;
5999;SDS011;3028;49.468;7.694;2024-01-30T11:50:06;3.92;;;3.63;;
5999;SDS011;3028;49.468;7.694;2024-01-30T11:52:12;4.22;;;3.90;;
5999;SDS011;3028;49.468;7.694;2024-01-30T11:54:15;2.88;;;2.55;;
5999;SDS011;3028;49.468;7.694;2024-01-30T11:56:17;3.38;;;2.97;;
5999;SDS011;3028;49.468;7.694;2024-01-30T11:58:19;3.42;;;3.05;;
5999;SDS011;3028;49.468;7.694;2024-01-30T12:00:21;2.60;;;2.40;;
5999;SDS011;3028;49.468;7.694;2024-01-30T12:02:23;4.65;;;2.15;;
5999;SDS011;3028;49.468;7.694;2024-01-30T12:04:27;4.25;;;2.65;;
5999;SDS011;3028;49.468;7.694;2024-01-30T12:06:31;2.05;;;1.90;;
5999;SDS011;3028;49.468;7.694;2024-01-30T12:08:35;4.00;;;2.78;;
5999;SDS011;3028;49.468;7.694;2024-01-30T12:10:37;7.32;;;2.80;;
5999;SDS011;3028;49.468;7.694;2024-01-30T12:12:39;3.92;;;2.58;;
5999;SDS011;3028;49.468;7.694;2024-01-30T12:14:43;2.22;;;2.03;;
5999;SDS011;3028;49.468;7.694;2024-01-30T12:16:48;2.20;;;2.10;;
5999;SDS011;3028;49.468;7.694;2024-01-30T12:18:58;3.70;;;3.45;;
5999;SDS011;3028;49.468;7.694;2024-01-30T12:21:02;3.38;;;3.05;;
5999;SDS011;3028;49.468;7.694;2024-01-30T12:23:04;5.85;;;3.55;;
5999;SDS011;3028;49.468;7.694;2024-01-30T12:25:08;3.55;;;2.80;;
5999;SDS011;3028;49.468;7.694;2024-01-30T12:27:11;3.33;;;3.00;;
5999;SDS011;3028;49.468;7.694;2024-01-30T12:29:14;2.10;;;1.88;;
5999;SDS011;3028;49.468;7.694;2024-01-30T12:31:16;3.88;;;2.95;;
5999;SDS011;3028;49.468;7.694;2024-01-30T12:33:18;3.03;;;2.67;;
5999;SDS011;3028;49.468;7.694;2024-01-30T12:35:20;6.40;;;2.80;;
5999;SDS011;3028;49.468;7.694;2024-01-30T12:37:23;3.40;;;3.20;;
5999;SDS011;3028;49.468;7.694;2024-01-30T12:39:26;3.65;;;2.55;;
5999;SDS011;3028;49.468;7.694;2024-01-30T12:41:31;2.78;;;2.58;;